createdAt,value
2022-12-27T00:02:38.230Z,100718.63
2022-12-27T00:05:22.270Z,100862.72
2022-12-27T00:08:06.053Z,100867.47
2022-12-27T00:10:49.856Z,100862.41
2022-12-27T00:13:33.548Z,100854.03
2022-12-27T00:16:19.380Z,100860.63
2022-12-27T00:19:05.434Z,100851.59
2022-12-27T00:21:49.885Z,100865.25
2022-12-27T00:24:35.317Z,100851.31
2022-12-27T00:27:19.068Z,100854.13
2022-12-27T00:30:03.306Z,100837.00
2022-12-27T00:32:48.324Z,100850.88
2022-12-27T00:35:33.499Z,100848.06
2022-12-27T00:38:17.294Z,100849.94
2022-12-27T00:41:01.309Z,100839.44
2022-12-27T00:43:45.741Z,100841.72
2022-12-27T00:46:29.510Z,100834.50
2022-12-27T00:49:13.428Z,100839.06
2022-12-27T00:51:58.651Z,100819.78
2022-12-27T00:54:42.512Z,100828.59
2022-12-27T00:57:26.422Z,100760.31
2022-12-27T01:00:12.395Z,100821.75
2022-12-27T01:02:56.258Z,100820.78
2022-12-27T01:05:40.432Z,100773.78
2022-12-27T01:08:26.711Z,100816.78
2022-12-27T01:11:11.504Z,100778.06
2022-12-27T01:13:56.175Z,100804.97
2022-12-27T01:16:40.817Z,100799.03
2022-12-27T01:19:24.579Z,100806.59
2022-12-27T01:22:09.459Z,100799.25
2022-12-27T01:24:54.779Z,100806.38
2022-12-27T01:27:38.725Z,100786.06
2022-12-27T01:30:22.439Z,100794.94
2022-12-27T01:33:06.283Z,100782.84
2022-12-27T01:35:50.071Z,100788.97
2022-12-27T01:38:33.741Z,100781.03
2022-12-27T01:41:39.296Z,100780.97
2022-12-27T01:44:54.895Z,100787.25
2022-12-27T01:47:49.009Z,100795.06
2022-12-27T01:50:37.166Z,100755.94
2022-12-27T01:53:23.214Z,100774.94
2022-12-27T01:56:11.402Z,100773.88
2022-12-27T01:59:01.182Z,100768.75
2022-12-27T02:01:48.203Z,100768.09
2022-12-27T02:04:33.294Z,100760.00
2022-12-27T02:07:17.289Z,100707.78
2022-12-27T02:10:03.562Z,100760.06
2022-12-27T02:12:47.488Z,100753.13
2022-12-27T02:15:32.817Z,100730.69
2022-12-27T02:18:17.290Z,100763.59
2022-12-27T02:21:24.955Z,100763.22
2022-12-27T02:24:42.029Z,100735.19
2022-12-27T02:27:47.008Z,100760.50
2022-12-27T02:30:35.799Z,100751.25
2022-12-27T02:33:23.095Z,100751.81
2022-12-27T02:36:11.256Z,100746.13
2022-12-27T02:38:59.329Z,100746.56
2022-12-27T02:42:01.875Z,100747.19
2022-12-27T02:45:03.943Z,100744.69
2022-12-27T02:48:07.971Z,100737.44
2022-12-27T02:51:21.359Z,100750.78
2022-12-27T02:54:19.511Z,100750.03
2022-12-27T02:57:11.281Z,100751.72
2022-12-27T03:00:26.384Z,100745.13
2022-12-27T03:03:38.368Z,100733.38
2022-12-27T03:06:41.163Z,100716.31
2022-12-27T03:10:06.186Z,100734.69
2022-12-27T03:13:14.509Z,100733.84
2022-12-27T03:16:19.615Z,100730.09
2022-12-27T03:19:12.289Z,100729.09
2022-12-27T03:22:13.653Z,100720.72
2022-12-27T03:25:16.165Z,100720.75
2022-12-27T03:28:21.643Z,100718.97
2022-12-27T03:31:27.978Z,100720.84
2022-12-27T03:34:38.358Z,100720.84
2022-12-27T03:37:44.132Z,100722.81
2022-12-27T03:40:38.942Z,100690.72
2022-12-27T03:43:21.937Z,100701.81
2022-12-27T03:46:30.815Z,100695.34
2022-12-27T03:49:24.724Z,100719.50
2022-12-27T03:52:13.059Z,100714.25
2022-12-27T03:54:57.808Z,100709.44
2022-12-27T03:57:41.621Z,100705.13
2022-12-27T04:00:25.478Z,100699.13
2022-12-27T04:03:09.339Z,100698.53
2022-12-27T04:05:54.724Z,100665.63
2022-12-27T04:08:56.031Z,100697.28
2022-12-27T04:11:57.238Z,100687.59
2022-12-27T04:14:58.600Z,100701.59
2022-12-27T04:17:59.951Z,100689.44
2022-12-27T04:21:01.331Z,100699.16
2022-12-27T04:24:03.802Z,100691.44
2022-12-27T04:27:05.217Z,100693.75
2022-12-27T04:30:06.612Z,100658.44
2022-12-27T04:33:08.027Z,100690.16
2022-12-27T04:35:51.980Z,100689.28
2022-12-27T04:38:36.222Z,100663.44
2022-12-27T04:41:38.918Z,100613.84
2022-12-27T04:44:40.373Z,100678.44
2022-12-27T04:47:42.958Z,100680.03
2022-12-27T04:50:46.276Z,100684.28
2022-12-27T04:53:49.274Z,100693.59
2022-12-27T04:56:34.759Z,100700.19
2022-12-27T04:59:35.799Z,100651.94
2022-12-27T05:02:20.756Z,100695.88
2022-12-27T05:05:04.916Z,100681.81
2022-12-27T05:08:06.307Z,100700.25
2022-12-27T05:11:07.766Z,100701.25
2022-12-27T05:14:02.103Z,100659.81
2022-12-27T05:16:46.488Z,100680.59
2022-12-27T05:19:30.407Z,100648.53
2022-12-27T05:22:31.886Z,100695.94
2022-12-27T05:25:33.355Z,100655.66
2022-12-27T05:28:17.403Z,100653.72
2022-12-27T05:31:03.940Z,100651.94
2022-12-27T05:33:48.057Z,100693.84
2022-12-27T05:36:31.815Z,100693.78
2022-12-27T05:39:15.599Z,100690.00
2022-12-27T05:41:59.387Z,100677.91
2022-12-27T05:44:43.183Z,100692.50
2022-12-27T05:47:28.357Z,100694.75
2022-12-27T05:50:12.702Z,100649.63
2022-12-27T05:52:57.237Z,100681.25
2022-12-27T05:55:41.493Z,100673.47
2022-12-27T05:58:26.147Z,100679.47
2022-12-27T06:01:11.827Z,100673.63
2022-12-27T06:03:57.104Z,100673.56
2022-12-27T06:06:40.911Z,100666.63
2022-12-27T06:09:24.803Z,100664.19
2022-12-27T06:12:08.864Z,100664.91
2022-12-27T06:14:52.635Z,100531.25
2022-12-27T06:17:36.322Z,100672.72
2022-12-27T06:20:21.725Z,100667.69
2022-12-27T06:23:05.616Z,100673.78
2022-12-27T06:25:49.637Z,100639.22
2022-12-27T06:28:33.660Z,100678.59
2022-12-27T06:31:18.485Z,100680.81
2022-12-27T06:34:02.376Z,100681.44
2022-12-27T06:36:50.981Z,100689.94
2022-12-27T06:39:34.762Z,100675.38
2022-12-27T06:42:18.802Z,100672.69
2022-12-27T06:45:03.573Z,100675.91
2022-12-27T06:47:47.543Z,100687.75
2022-12-27T06:50:31.533Z,100686.00
2022-12-27T06:53:16.786Z,100686.81
2022-12-27T06:56:05.057Z,100670.34
2022-12-27T06:58:51.058Z,100686.91
2022-12-27T07:01:35.019Z,100692.19
2022-12-27T07:04:18.967Z,100686.72
2022-12-27T07:07:02.741Z,100690.16
2022-12-27T07:09:47.931Z,100661.69
2022-12-27T07:12:36.382Z,100681.16
2022-12-27T07:15:20.712Z,100679.59
2022-12-27T07:18:04.840Z,100671.22
2022-12-27T07:20:48.662Z,100635.78
2022-12-27T07:23:32.589Z,100671.44
2022-12-27T07:26:19.784Z,100677.09
2022-12-27T07:29:03.994Z,100670.38
2022-12-27T07:31:47.819Z,100675.88
2022-12-27T07:34:31.579Z,100676.91
2022-12-27T07:37:15.495Z,100676.97
2022-12-27T07:39:59.363Z,100665.41
2022-12-27T07:42:44.495Z,100676.22
2022-12-27T07:45:28.251Z,100633.06
2022-12-27T07:48:12.151Z,100670.47
2022-12-27T07:50:56.794Z,100677.19
2022-12-27T07:53:40.892Z,100664.38
2022-12-27T07:56:26.913Z,100663.25
2022-12-27T07:59:13.959Z,100676.72
2022-12-27T08:02:07.304Z,100672.34
2022-12-27T08:04:52.202Z,100654.31
2022-12-27T08:07:36.253Z,100683.53
2022-12-27T08:10:20.219Z,100672.00
2022-12-27T08:13:04.153Z,100676.34
2022-12-27T08:15:49.622Z,100678.88
2022-12-27T08:18:33.361Z,100677.03
2022-12-27T08:21:17.734Z,100665.44
2022-12-27T08:24:01.515Z,100682.69
2022-12-27T08:26:45.637Z,100690.09
2022-12-27T08:29:29.472Z,100654.72
2022-12-27T08:32:14.799Z,100676.03
2022-12-27T08:35:12.071Z,100670.34
2022-12-27T08:38:03.020Z,100673.47
2022-12-27T08:40:47.525Z,100679.22
2022-12-27T08:43:31.301Z,100662.13
2022-12-27T08:46:15.304Z,100660.34
2022-12-27T08:49:01.837Z,100656.28
2022-12-27T08:51:45.722Z,100653.78
2022-12-27T08:54:31.822Z,100647.34
2022-12-27T08:57:15.559Z,100647.34
2022-12-27T08:59:59.379Z,100645.47
2022-12-27T09:02:43.407Z,100618.03
2022-12-27T09:05:29.108Z,100639.91
2022-12-27T09:08:13.134Z,100601.03
2022-12-27T09:10:56.982Z,100637.53
2022-12-27T09:13:41.083Z,100625.19
2022-12-27T09:16:27.594Z,100623.69
2022-12-27T09:19:11.497Z,100623.47
2022-12-27T09:21:56.833Z,100625.91
2022-12-27T09:24:40.580Z,100614.47
2022-12-27T09:27:24.668Z,100589.06
2022-12-27T09:30:09.765Z,100578.47
2022-12-27T09:32:53.526Z,100597.03
2022-12-27T09:35:38.728Z,100588.13
2022-12-27T09:38:24.397Z,100582.13
2022-12-27T09:41:37.701Z,100587.88
2022-12-27T09:44:32.023Z,100580.81
2022-12-27T09:47:20.547Z,100579.09
2022-12-27T09:50:07.637Z,100546.00
2022-12-27T09:53:01.270Z,100583.06
2022-12-27T09:55:49.691Z,100579.09
2022-12-27T09:58:42.179Z,100571.34
2022-12-27T10:01:32.506Z,100582.13
2022-12-27T10:04:19.003Z,100582.13
2022-12-27T10:07:19.980Z,100574.91
2022-12-27T10:10:10.132Z,100557.25
2022-12-27T10:13:05.309Z,100551.31
2022-12-27T10:15:58.776Z,100532.66
2022-12-27T10:18:53.798Z,100532.59
2022-12-27T10:21:40.734Z,100525.06
2022-12-27T10:24:38.923Z,100529.44
2022-12-27T10:27:25.622Z,100536.88
2022-12-27T10:30:16.515Z,100505.47
2022-12-27T10:33:01.205Z,100514.63
2022-12-27T10:35:45.088Z,100521.78
2022-12-27T10:38:34.696Z,100513.94
2022-12-27T10:41:27.548Z,100502.56
2022-12-27T10:44:13.123Z,100506.22
2022-12-27T10:46:58.541Z,100487.78
2022-12-27T10:49:44.425Z,100504.34
2022-12-27T10:52:32.720Z,100503.41
2022-12-27T10:55:34.365Z,100492.50
2022-12-27T10:58:33.551Z,100480.56
2022-12-27T11:01:25.404Z,100462.25
2022-12-27T11:04:20.582Z,100476.59
2022-12-27T11:07:19.473Z,100468.22
2022-12-27T11:10:10.441Z,100474.28
2022-12-27T11:12:59.809Z,100436.75
2022-12-27T11:15:46.023Z,100430.28
2022-12-27T11:18:34.872Z,100429.31
2022-12-27T11:21:27.488Z,100454.31
2022-12-27T11:24:16.717Z,100446.91
2022-12-27T11:27:01.477Z,100449.56
2022-12-27T11:29:47.223Z,100445.84
2022-12-27T11:32:33.447Z,100426.19
2022-12-27T11:35:19.687Z,100431.56
2022-12-27T11:38:04.995Z,100400.44
2022-12-27T11:40:59.861Z,100429.47
2022-12-27T11:43:49.161Z,100416.28
2022-12-27T11:46:39.625Z,100431.94
2022-12-27T11:49:27.439Z,100430.66
2022-12-27T11:52:40.235Z,100408.84
2022-12-27T11:55:54.114Z,100392.72
2022-12-27T11:58:57.043Z,100409.28
2022-12-27T12:02:06.893Z,100425.59
2022-12-27T12:05:37.656Z,100429.19
2022-12-27T12:08:54.951Z,100423.97
2022-12-27T12:11:56.365Z,100414.50
2022-12-27T12:15:20.534Z,100403.53
2022-12-27T12:18:23.575Z,100405.97
2022-12-27T12:21:25.902Z,100412.16
2022-12-27T12:24:50.477Z,100411.53
2022-12-27T12:27:49.106Z,100417.59
2022-12-27T12:31:01.703Z,100406.59
2022-12-27T12:34:18.257Z,100435.50
2022-12-27T12:37:18.982Z,100428.34
2022-12-27T12:40:29.045Z,100442.09
2022-12-27T12:43:31.043Z,100436.97
2022-12-27T12:46:26.495Z,100453.25
2022-12-27T12:49:28.983Z,100455.63
2022-12-27T12:52:40.838Z,100453.50
2022-12-27T12:55:38.511Z,100452.31
2022-12-27T12:58:43.048Z,100457.16
2022-12-27T13:01:38.378Z,100459.25
2022-12-27T13:04:40.784Z,100459.03
2022-12-27T13:07:40.975Z,100463.94
2022-12-27T13:11:00.952Z,100486.84
2022-12-27T13:14:01.962Z,100486.13
2022-12-27T13:16:54.016Z,100485.03
2022-12-27T13:19:58.717Z,100483.13
2022-12-27T13:22:58.126Z,100493.34
2022-12-27T13:25:47.788Z,100470.31
2022-12-27T13:28:40.379Z,100495.25
2022-12-27T13:31:35.569Z,100487.38
2022-12-27T13:34:33.240Z,100502.50
2022-12-27T13:37:27.888Z,100476.34
2022-12-27T13:40:32.081Z,100488.38
2022-12-27T13:43:30.967Z,100500.31
2022-12-27T13:46:43.137Z,100510.50
2022-12-27T13:50:00.358Z,100501.28
2022-12-27T13:52:59.877Z,100489.69
2022-12-27T13:55:55.655Z,100491.94
2022-12-27T13:58:59.835Z,100499.59
2022-12-27T14:02:02.566Z,100507.81
2022-12-27T14:05:12.168Z,100503.38
2022-12-27T14:08:04.778Z,100479.38
2022-12-27T14:10:55.324Z,100508.75
2022-12-27T14:13:45.736Z,100477.41
2022-12-27T14:16:42.864Z,100515.47
2022-12-27T14:19:49.532Z,100485.59
2022-12-27T14:22:55.713Z,100489.19
2022-12-27T14:26:21.158Z,100522.50
2022-12-27T14:29:44.318Z,100511.22
2022-12-27T14:33:07.965Z,100515.31
2022-12-27T14:36:21.732Z,100525.94
2022-12-27T14:39:36.076Z,100530.09
2022-12-27T14:42:47.202Z,100537.19
2022-12-27T14:46:02.567Z,100504.16
2022-12-27T14:49:27.200Z,100545.03
2022-12-27T14:52:43.480Z,100543.53
2022-12-27T14:55:41.085Z,100520.38
2022-12-27T14:58:50.724Z,100547.91
2022-12-27T15:01:52.910Z,100510.03
2022-12-27T15:04:52.236Z,100551.06
2022-12-27T15:07:55.422Z,100567.53
2022-12-27T15:10:56.107Z,100575.94
2022-12-27T15:13:58.198Z,100576.69
2022-12-27T15:16:53.815Z,100471.47
2022-12-27T15:20:01.872Z,100592.19
2022-12-27T15:23:00.389Z,100610.53
2022-12-27T15:25:57.207Z,100619.94
2022-12-27T15:28:59.583Z,100619.06
2022-12-27T15:31:57.059Z,100587.25
2022-12-27T15:35:16.487Z,100623.13
2022-12-27T15:38:07.467Z,100648.59
2022-12-27T15:41:14.344Z,100657.56
2022-12-27T15:44:27.336Z,100658.38
2022-12-27T15:47:41.262Z,100658.63
2022-12-27T15:50:36.028Z,100645.81
2022-12-27T15:53:44.596Z,100655.19
2022-12-27T15:56:44.216Z,100658.19
2022-12-27T15:59:48.165Z,100653.63
2022-12-27T16:02:35.715Z,100639.97
2022-12-27T16:05:47.581Z,100662.38
2022-12-27T16:08:42.434Z,100658.91
2022-12-27T16:12:03.639Z,100667.16
2022-12-27T16:14:47.900Z,100665.09
2022-12-27T16:17:40.827Z,100680.50
2022-12-27T16:20:24.944Z,100665.81
2022-12-27T16:23:12.655Z,100675.03
2022-12-27T16:26:03.183Z,100674.31
2022-12-27T16:28:56.500Z,100668.06
2022-12-27T16:31:45.765Z,100677.03
2022-12-27T16:34:31.541Z,100678.59
2022-12-27T16:37:24.383Z,100675.59
2022-12-27T16:40:20.693Z,100680.94
2022-12-27T16:43:32.317Z,100673.19
2022-12-27T16:46:29.739Z,100694.34
2022-12-27T16:49:35.403Z,100697.72
2022-12-27T16:52:51.308Z,100714.16
2022-12-27T16:56:08.157Z,100706.53
2022-12-27T16:58:52.621Z,100714.03
2022-12-27T17:01:59.270Z,100701.69
2022-12-27T17:05:01.062Z,100677.00
2022-12-27T17:08:14.923Z,100712.06
2022-12-27T17:11:02.349Z,100730.97
2022-12-27T17:13:51.026Z,100740.13
2022-12-27T17:16:43.344Z,100685.63
2022-12-27T17:19:34.657Z,100701.97
2022-12-27T17:22:19.387Z,100709.25
2022-12-27T17:25:04.287Z,100714.53
2022-12-27T17:28:13.317Z,100724.25
2022-12-27T17:31:04.982Z,100726.97
2022-12-27T17:34:02.495Z,100726.69
2022-12-27T17:36:58.339Z,100718.03
2022-12-27T17:40:07.779Z,100721.09
2022-12-27T17:43:20.423Z,100723.81
2022-12-27T17:46:22.082Z,100738.81
2022-12-27T17:49:09.710Z,100736.13
2022-12-27T17:52:12.873Z,100742.56
2022-12-27T17:55:25.866Z,100635.72
2022-12-27T17:58:12.482Z,100599.56
2022-12-27T18:01:00.497Z,100762.56
2022-12-27T18:03:48.571Z,100774.25
2022-12-27T18:06:32.651Z,100757.00
2022-12-27T18:09:32.221Z,100770.56
2022-12-27T18:12:21.447Z,100759.19
2022-12-27T18:15:08.566Z,100764.31
2022-12-27T18:17:54.931Z,100754.16
2022-12-27T18:20:40.785Z,100766.31
2022-12-27T18:23:24.727Z,100744.69
2022-12-27T18:26:13.597Z,100743.78
2022-12-27T18:28:57.704Z,100770.59
2022-12-27T18:31:49.998Z,100758.28
2022-12-27T18:34:39.956Z,100769.13
2022-12-27T18:37:26.116Z,100782.13
2022-12-27T18:40:21.873Z,100774.09
2022-12-27T18:43:16.657Z,100798.84
2022-12-27T18:46:01.220Z,100775.25
2022-12-27T18:48:45.404Z,100797.66
2022-12-27T18:51:34.279Z,100781.63
2022-12-27T18:54:35.187Z,100768.31
2022-12-27T18:57:31.994Z,100792.75
2022-12-27T19:00:21.746Z,100778.53
2022-12-27T19:03:15.034Z,100767.00
2022-12-27T19:06:06.232Z,100800.91
2022-12-27T19:08:53.594Z,100796.81
2022-12-27T19:11:38.623Z,100795.34
2022-12-27T19:14:24.221Z,100819.66
2022-12-27T19:17:18.605Z,100810.56
2022-12-27T19:20:05.443Z,100799.38
2022-12-27T19:22:51.895Z,100804.25
2022-12-27T19:25:38.284Z,100799.28
2022-12-27T19:28:27.924Z,100783.38
2022-12-27T19:31:18.443Z,100799.28
2022-12-27T19:34:09.706Z,100800.94
2022-12-27T19:36:55.861Z,100797.53
2022-12-27T19:39:41.913Z,100725.00
2022-12-27T19:42:29.433Z,100767.28
2022-12-27T19:45:15.936Z,100798.72
2022-12-27T19:47:59.902Z,100757.03
2022-12-27T19:50:49.149Z,100746.06
2022-12-27T19:53:35.658Z,100803.44
2022-12-27T19:56:19.649Z,100802.28
2022-12-27T19:59:04.414Z,100798.00
2022-12-27T20:01:49.117Z,100796.19
2022-12-27T20:04:33.277Z,100760.97
2022-12-27T20:07:22.767Z,100816.19
2022-12-27T20:10:07.598Z,100814.50
2022-12-27T20:12:51.578Z,100812.66
2022-12-27T20:15:35.615Z,100826.53
2022-12-27T20:18:19.931Z,100815.22
2022-12-27T20:21:04.075Z,100788.84
2022-12-27T20:23:50.079Z,100816.88
2022-12-27T20:26:34.120Z,100802.72
2022-12-27T20:29:18.165Z,100813.28
2022-12-27T20:32:02.276Z,100774.09
2022-12-27T20:34:46.959Z,100846.94
2022-12-27T20:37:31.086Z,100800.66
2022-12-27T20:40:16.736Z,100806.88
2022-12-27T20:43:00.809Z,100806.53
2022-12-27T20:45:44.872Z,100870.13
2022-12-27T20:48:29.022Z,100881.25
2022-12-27T20:51:14.963Z,100870.13
2022-12-27T20:54:00.701Z,100880.19
2022-12-27T20:56:45.982Z,100882.50
2022-12-27T20:59:29.835Z,100880.31
2022-12-27T21:02:14.312Z,100882.50
2022-12-27T21:04:58.296Z,100888.59
2022-12-27T21:07:42.117Z,100893.06
2022-12-27T21:10:25.939Z,100914.19
2022-12-27T21:13:11.213Z,100912.22
2022-12-27T21:15:54.952Z,100907.53
2022-12-27T21:18:38.854Z,100899.50
2022-12-27T21:21:27.966Z,100908.91
2022-12-27T21:24:12.799Z,100919.75
2022-12-27T21:26:56.826Z,100903.69
2022-12-27T21:29:42.105Z,100936.34
2022-12-27T21:32:26.015Z,100928.97
2022-12-27T21:35:10.923Z,100929.44
2022-12-27T21:37:54.761Z,100934.22
2022-12-27T21:40:38.537Z,100946.09
2022-12-27T21:43:22.372Z,100831.78
2022-12-27T21:46:11.189Z,100953.44
2022-12-27T21:48:56.339Z,100907.66
2022-12-27T21:51:41.682Z,100952.63
2022-12-27T21:54:25.546Z,100950.19
2022-12-27T21:57:09.520Z,100915.09
2022-12-27T21:59:55.972Z,100901.41
2022-12-27T22:02:41.593Z,100916.13
2022-12-27T22:05:25.758Z,100920.38
2022-12-27T22:08:09.836Z,100938.34
2022-12-27T22:10:57.192Z,100919.28
2022-12-27T22:13:40.986Z,100952.72
2022-12-27T22:16:26.873Z,100974.72
2022-12-27T22:19:13.701Z,100977.13
2022-12-27T22:21:57.562Z,100954.63
2022-12-27T22:24:41.379Z,100971.59
2022-12-27T22:27:25.315Z,101002.09
2022-12-27T22:30:09.882Z,101004.38
2022-12-27T22:32:53.849Z,101009.28
2022-12-27T22:35:39.163Z,101005.97
2022-12-27T22:38:22.959Z,100898.25
2022-12-27T22:41:08.360Z,101025.00
2022-12-27T22:43:53.722Z,101048.38
2022-12-27T22:49:41.533Z,101055.03
2022-12-27T22:52:26.803Z,101056.44
2022-12-27T22:55:11.525Z,101062.66
2022-12-27T22:57:56.542Z,101068.22
2022-12-27T23:00:40.681Z,101070.47
2022-12-27T23:03:24.438Z,101049.78
2022-12-27T23:06:08.799Z,101092.50
2022-12-27T23:08:54.526Z,101031.19
2022-12-27T23:11:41.622Z,101081.63
2022-12-27T23:14:25.444Z,101082.41
2022-12-27T23:17:09.265Z,101087.56
2022-12-27T23:19:53.025Z,101089.09
2022-12-27T23:22:36.858Z,101083.28
2022-12-27T23:25:22.137Z,101096.25
2022-12-27T23:28:06.439Z,101094.84
2022-12-27T23:30:50.716Z,101088.25
2022-12-27T23:33:34.815Z,100987.97
2022-12-27T23:36:19.349Z,101092.59
2022-12-27T23:39:03.258Z,101095.94
2022-12-27T23:41:48.459Z,101072.78
2022-12-27T23:44:32.985Z,100968.91
2022-12-27T23:47:18.789Z,101106.50
2022-12-27T23:50:02.705Z,101108.38
2022-12-27T23:52:47.278Z,101116.63
2022-12-27T23:55:31.020Z,101111.16
2022-12-27T23:58:16.241Z,101104.16
